Time;durP1;ratioP1;P1;durP2;ratioP2;P2;SDS_P1;SDS_P2;PMS_P1;PMS_P2;Temp;Humidity;BMP_temperature;BMP_pressure;BME280_temperature;BME280_humidity;BME280_pressure;Samples;Min_cycle;Max_cycle;Signal;HPM_P1;HPM_P2
2023/07/16 00:00:01;;;;;;;5.77;5.27;;;25.10;99.90;;;;;;4999430;28;20474;-80
2023/07/16 00:02:29;;;;;;;5.20;4.80;;;25.10;99.90;;;;;;4998592;28;20473;-77
2023/07/16 00:04:57;;;;;;;4.90;4.50;;;25.10;99.90;;;;;;5001462;28;20462;-76
2023/07/16 00:07:24;;;;;;;3.97;3.67;;;25.10;99.90;;;;;;5000885;28;20488;-79
2023/07/16 00:09:53;;;;;;;4.83;4.43;;;25.10;99.90;;;;;;5001268;28;20490;-75
2023/07/16 00:12:19;;;;;;;4.40;4.07;;;25.10;99.90;;;;;;5001976;28;20481;-80
2023/07/16 00:14:49;;;;;;;4.70;4.30;;;25.10;99.90;;;;;;5004813;28;20474;-76
2023/07/16 00:17:16;;;;;;;3.90;3.60;;;25.10;99.90;;;;;;5007462;28;20469;-80
2023/07/16 00:19:44;;;;;;;4.47;4.17;;;25.00;99.90;;;;;;5002330;28;20474;-76
2023/07/16 00:22:12;;;;;;;4.90;4.60;;;25.00;99.90;;;;;;5002082;28;20470;-79
2023/07/16 00:24:40;;;;;;;4.00;3.70;;;25.00;99.90;;;;;;5003538;28;20465;-80
2023/07/16 00:27:07;;;;;;;3.97;3.73;;;25.00;99.90;;;;;;5005131;28;20473;-79
2023/07/16 00:29:34;;;;;;;3.30;3.10;;;25.00;99.90;;;;;;5002243;28;20470;-81
2023/07/16 00:32:01;;;;;;;3.40;3.20;;;25.00;99.90;;;;;;5002165;28;20461;-80
2023/07/16 00:34:30;;;;;;;3.73;3.53;;;24.90;99.90;;;;;;5010054;28;20469;-75
2023/07/16 00:37:01;;;;;;;3.10;2.90;;;24.90;99.90;;;;;;5010044;28;20453;-77
2023/07/16 00:39:30;;;;;;;3.87;3.57;;;25.00;99.90;;;;;;5000819;28;20458;-82
2023/07/16 00:41:58;;;;;;;4.00;3.70;;;25.00;99.90;;;;;;5011999;28;20446;-80
2023/07/16 00:44:25;;;;;;;3.70;3.50;;;24.90;99.90;;;;;;5007823;28;20486;-77
2023/07/16 00:46:53;;;;;;;3.50;3.30;;;25.00;99.90;;;;;;5006328;28;20497;-80
2023/07/16 00:49:21;;;;;;;3.40;3.10;;;25.00;99.90;;;;;;5005194;28;20542;-76
2023/07/16 00:51:48;;;;;;;3.07;2.87;;;24.90;99.90;;;;;;5005737;28;20533;-80
2023/07/16 00:54:16;;;;;;;3.30;3.10;;;25.00;99.90;;;;;;5005793;28;20474;-79
2023/07/16 00:56:45;;;;;;;3.37;3.07;;;25.00;99.90;;;;;;5008256;28;20466;-76
2023/07/16 00:59:12;;;;;;;4.77;4.37;;;24.90;99.90;;;;;;5005456;28;20455;-76
2023/07/16 01:01:40;;;;;;;4.20;3.80;;;24.90;99.90;;;;;;5004693;28;20474;-77
2023/07/16 01:04:07;;;;;;;4.30;4.00;;;24.90;99.90;;;;;;5005161;28;20477;-76
2023/07/16 01:06:38;;;;;;;4.40;4.00;;;24.90;99.90;;;;;;5006123;28;20478;-76
2023/07/16 01:09:11;;;;;;;3.73;3.50;;;25.00;99.90;;;;;;5001318;28;20935;-75
2023/07/16 01:11:41;;;;;;;5.00;4.10;;;25.00;99.90;;;;;;5002880;28;20462;-79
2023/07/16 01:14:12;;;;;;;5.90;4.10;;;24.90;99.90;;;;;;5004915;28;20473;-78
2023/07/16 01:16:43;;;;;;;5.37;4.33;;;24.90;99.90;;;;;;5001153;28;20484;-75
2023/07/16 01:19:10;;;;;;;8.00;7.20;;;24.90;99.90;;;;;;5000930;28;20514;-75
2023/07/16 01:22:03;;;;;;;11.30;10.20;;;24.80;99.90;;;;;;5000191;28;20481;-75
2023/07/16 01:24:52;;;;;;;5.13;4.73;;;24.80;99.90;;;;;;5008161;28;20462;-76
2023/07/16 01:27:46;;;;;;;5.10;4.70;;;24.80;99.90;;;;;;5009127;28;20466;-76
2023/07/16 01:30:16;;;;;;;6.63;5.80;;;24.80;99.90;;;;;;5006661;28;20458;-78
2023/07/16 01:32:45;;;;;;;5.30;4.90;;;24.70;99.90;;;;;;5008939;28;20476;-76
2023/07/16 01:35:13;;;;;;;4.60;4.20;;;24.60;99.90;;;;;;5005629;28;20857;-80
2023/07/16 01:37:41;;;;;;;4.90;4.50;;;24.70;99.90;;;;;;5005200;28;20462;-80
2023/07/16 01:40:10;;;;;;;4.90;4.50;;;24.60;99.90;;;;;;4989797;28;20477;-77
2023/07/16 01:42:37;;;;;;;5.03;4.63;;;24.60;99.90;;;;;;4987993;28;20478;-77
2023/07/16 01:45:05;;;;;;;5.47;4.17;;;24.60;99.90;;;;;;4993243;28;20478;-77
2023/07/16 01:47:48;;;;;;;4.03;3.60;;;24.60;99.90;;;;;;4991913;28;20466;-78
2023/07/16 01:50:15;;;;;;;5.33;4.33;;;24.50;99.90;;;;;;4994826;28;20471;-80
2023/07/16 01:52:42;;;;;;;4.67;4.33;;;24.50;99.90;;;;;;4995475;28;20490;-77
2023/07/16 01:55:09;;;;;;;6.93;6.33;;;24.50;99.90;;;;;;4994645;28;20481;-80
2023/07/16 01:57:37;;;;;;;7.70;6.90;;;24.50;99.90;;;;;;4994602;28;20459;-76
2023/07/16 02:00:04;;;;;;;6.00;5.50;;;24.50;99.90;;;;;;4993471;28;20473;-77
2023/07/16 02:02:31;;;;;;;6.27;5.67;;;24.50;99.90;;;;;;4991999;28;20480;-76
2023/07/16 02:05:00;;;;;;;6.20;5.07;;;24.50;99.90;;;;;;4987499;28;20475;-77
2023/07/16 02:07:28;;;;;;;5.57;4.80;;;24.50;99.90;;;;;;4986728;28;20533;-80
2023/07/16 02:09:55;;;;;;;4.87;4.40;;;24.50;99.90;;;;;;4990361;28;20487;-77
2023/07/16 02:12:22;;;;;;;4.60;4.20;;;24.50;99.90;;;;;;4986559;28;20486;-77
2023/07/16 02:14:51;;;;;;;4.33;4.03;;;24.50;99.90;;;;;;4980532;28;20474;-77
2023/07/16 02:17:19;;;;;;;3.90;3.47;;;24.50;99.90;;;;;;4979877;28;20872;-77
2023/07/16 02:19:46;;;;;;;5.00;4.60;;;24.50;99.90;;;;;;4981691;28;20787;-80
2023/07/16 02:22:15;;;;;;;4.50;3.93;;;24.40;99.90;;;;;;4980091;28;20503;-76
2023/07/16 02:24:42;;;;;;;4.33;4.03;;;24.50;99.90;;;;;;4968718;28;20469;-81
2023/07/16 02:27:09;;;;;;;5.20;4.70;;;24.50;99.90;;;;;;4979271;28;21005;-80
2023/07/16 02:29:36;;;;;;;5.20;4.70;;;24.50;99.90;;;;;;4977683;28;20529;-77
2023/07/16 02:32:03;;;;;;;8.20;5.23;;;24.60;99.90;;;;;;4978104;28;20474;-79
2023/07/16 02:34:30;;;;;;;4.60;4.20;;;24.50;99.90;;;;;;4977297;28;20499;-77
2023/07/16 02:37:01;;;;;;;6.43;4.20;;;24.50;99.90;;;;;;4978535;28;20935;-80
2023/07/16 02:39:29;;;;;;;4.80;4.40;;;24.50;99.90;;;;;;4976979;28;20477;-80
2023/07/16 02:41:56;;;;;;;4.87;4.47;;;24.40;99.90;;;;;;4977838;28;20550;-77
2023/07/16 02:44:23;;;;;;;4.37;4.07;;;24.30;99.90;;;;;;4977324;28;20541;-80
2023/07/16 02:46:50;;;;;;;4.10;3.80;;;24.30;99.90;;;;;;4978030;28;20471;-80
2023/07/16 02:49:17;;;;;;;4.43;4.13;;;24.20;99.90;;;;;;4977587;28;20478;-77
2023/07/16 02:51:44;;;;;;;4.17;3.87;;;24.20;99.90;;;;;;4977236;28;20769;-77
2023/07/16 02:54:11;;;;;;;4.53;4.07;;;24.20;99.90;;;;;;4977714;28;20999;-79
2023/07/16 02:56:39;;;;;;;4.73;4.43;;;24.10;99.90;;;;;;4977083;28;20522;-77
2023/07/16 02:59:06;;;;;;;5.00;4.60;;;24.00;99.90;;;;;;4977482;28;20467;-77
2023/07/16 03:01:33;;;;;;;4.83;4.33;;;24.00;99.90;;;;;;4977022;28;20513;-80
2023/07/16 03:04:00;;;;;;;5.67;4.30;;;23.90;99.90;;;;;;4976691;28;20479;-76
2023/07/16 03:06:27;;;;;;;4.80;4.40;;;23.80;99.90;;;;;;4976856;28;20499;-79
2023/07/16 03:08:54;;;;;;;4.80;4.40;;;23.80;99.90;;;;;;4977144;28;20466;-76
2023/07/16 03:11:21;;;;;;;5.23;4.77;;;23.80;99.90;;;;;;4977055;28;20533;-76
2023/07/16 03:13:50;;;;;;;5.00;4.53;;;23.70;99.90;;;;;;4975498;28;20945;-76
2023/07/16 03:16:17;;;;;;;4.43;4.03;;;23.70;99.90;;;;;;4977013;28;20972;-80
2023/07/16 03:18:45;;;;;;;4.93;4.53;;;23.60;99.90;;;;;;4975748;28;20509;-79
2023/07/16 03:21:12;;;;;;;4.77;4.37;;;23.60;99.90;;;;;;4976118;28;20475;-76
2023/07/16 03:23:42;;;;;;;4.93;4.53;;;23.60;99.90;;;;;;4976196;28;20573;-76
2023/07/16 03:26:09;;;;;;;4.50;4.20;;;23.50;99.90;;;;;;4976759;28;20821;-76
2023/07/16 03:28:36;;;;;;;4.93;4.47;;;23.50;99.90;;;;;;4976111;28;20471;-80
2023/07/16 03:31:04;;;;;;;4.73;4.37;;;23.50;99.90;;;;;;4976258;28;20470;-79
2023/07/16 03:33:34;;;;;;;5.60;5.13;;;23.50;99.90;;;;;;4976476;28;20553;-79
2023/07/16 03:36:01;;;;;;;5.37;4.60;;;23.50;99.90;;;;;;4976625;28;20471;-75
2023/07/16 03:38:28;;;;;;;5.43;4.93;;;23.50;99.90;;;;;;4975570;28;20541;-80
2023/07/16 03:40:56;;;;;;;5.17;4.83;;;23.40;99.90;;;;;;4976263;28;20541;-75
2023/07/16 03:43:22;;;;;;;4.13;3.83;;;23.40;99.90;;;;;;4977214;28;20560;-80
2023/07/16 03:45:50;;;;;;;5.50;4.97;;;23.40;99.90;;;;;;4976579;28;20497;-76
2023/07/16 03:48:18;;;;;;;4.70;4.30;;;23.30;99.90;;;;;;4978087;28;20463;-76
2023/07/16 03:50:45;;;;;;;3.93;3.63;;;23.30;99.90;;;;;;4975830;28;20490;-76
2023/07/16 03:53:12;;;;;;;4.00;3.70;;;23.30;99.90;;;;;;4976822;28;20957;-76
2023/07/16 03:55:39;;;;;;;4.10;3.80;;;23.20;99.90;;;;;;4976082;28;20471;-80
2023/07/16 03:58:06;;;;;;;4.50;3.67;;;23.20;99.90;;;;;;4976298;28;20506;-77
2023/07/16 04:00:33;;;;;;;8.10;4.67;;;23.20;99.90;;;;;;4975517;28;20503;-80
2023/07/16 04:03:00;;;;;;;4.20;3.93;;;23.20;99.90;;;;;;4975923;28;20474;-77
2023/07/16 04:05:29;;;;;;;3.60;3.13;;;23.20;99.90;;;;;;4976273;28;20502;-81
2023/07/16 04:07:56;;;;;;;4.53;4.13;;;23.20;99.90;;;;;;4975897;28;20991;-76
2023/07/16 04:10:23;;;;;;;4.30;3.90;;;23.20;99.90;;;;;;4976157;28;20477;-76
2023/07/16 04:12:50;;;;;;;4.70;3.37;;;23.10;99.90;;;;;;4975480;28;20565;-76
2023/07/16 04:15:17;;;;;;;4.83;3.33;;;23.20;99.90;;;;;;4975808;28;20564;-80
2023/07/16 04:17:44;;;;;;;4.67;3.60;;;23.20;99.90;;;;;;4975522;28;20494;-77
2023/07/16 04:20:11;;;;;;;4.70;3.50;;;23.10;99.90;;;;;;4975716;28;20545;-80
2023/07/16 04:22:41;;;;;;;3.87;3.43;;;23.10;99.90;;;;;;4964255;28;20526;-80
2023/07/16 04:25:09;;;;;;;5.60;3.60;;;23.10;99.90;;;;;;4974962;28;20481;-76
2023/07/16 04:27:36;;;;;;;3.60;3.30;;;23.10;99.90;;;;;;4974739;28;20561;-79
2023/07/16 04:30:03;;;;;;;4.30;3.63;;;23.20;99.90;;;;;;4975811;28;20467;-80
2023/07/16 04:32:30;;;;;;;4.50;3.33;;;23.20;99.90;;;;;;4975281;28;20884;-81
2023/07/16 04:34:57;;;;;;;3.20;2.90;;;23.20;99.90;;;;;;4974916;28;20820;-76
2023/07/16 04:37:24;;;;;;;3.57;3.13;;;23.20;99.90;;;;;;4975222;28;20501;-80
2023/07/16 04:39:53;;;;;;;3.27;2.97;;;23.10;99.90;;;;;;4974447;28;20574;-76
2023/07/16 04:42:20;;;;;;;3.70;3.40;;;23.10;99.90;;;;;;4975534;28;20550;-76
2023/07/16 04:44:47;;;;;;;3.33;3.03;;;23.20;99.90;;;;;;4974690;28;20514;-80
2023/07/16 04:47:14;;;;;;;3.97;3.57;;;23.20;99.90;;;;;;4975317;28;20462;-80
2023/07/16 04:49:41;;;;;;;3.60;3.30;;;23.20;99.90;;;;;;4975069;28;21048;-76
2023/07/16 04:52:08;;;;;;;2.50;2.30;;;23.20;99.90;;;;;;4975270;28;20467;-79
2023/07/16 04:54:38;;;;;;;4.70;3.23;;;23.20;99.90;;;;;;4975025;28;20514;-75
2023/07/16 04:57:08;;;;;;;2.80;2.60;;;23.10;99.90;;;;;;4974785;28;20541;-80
2023/07/16 04:59:35;;;;;;;2.97;2.77;;;23.20;99.90;;;;;;4975014;28;20786;-75
2023/07/16 05:02:06;;;;;;;3.53;3.23;;;23.20;99.90;;;;;;4974185;28;20459;-74
2023/07/16 05:04:33;;;;;;;3.83;3.43;;;23.20;99.90;;;;;;4975180;28;20479;-79
2023/07/16 05:07:00;;;;;;;3.37;3.07;;;23.20;99.90;;;;;;4974472;28;20475;-80
2023/07/16 05:09:27;;;;;;;3.97;3.57;;;23.20;99.90;;;;;;4974900;28;20514;-81
2023/07/16 05:11:54;;;;;;;4.07;3.77;;;23.20;99.90;;;;;;4974398;28;21020;-79
2023/07/16 05:14:22;;;;;;;3.27;3.07;;;23.20;99.90;;;;;;4974616;28;20545;-75
2023/07/16 05:16:49;;;;;;;3.90;3.60;;;23.20;99.90;;;;;;4974347;28;20546;-80
2023/07/16 05:19:16;;;;;;;4.20;3.80;;;23.20;99.90;;;;;;4974671;28;20876;-80
2023/07/16 05:21:44;;;;;;;3.43;3.23;;;23.20;99.90;;;;;;4974242;28;20506;-77
2023/07/16 05:24:11;;;;;;;4.10;3.80;;;23.20;99.90;;;;;;4974321;28;20502;-80
2023/07/16 05:26:39;;;;;;;3.77;3.50;;;23.20;99.90;;;;;;4974642;28;20574;-76
2023/07/16 05:29:06;;;;;;;3.93;3.67;;;23.20;99.90;;;;;;4972294;28;20545;-76
2023/07/16 05:31:35;;;;;;;4.00;3.70;;;23.20;99.90;;;;;;4974486;28;20909;-81
2023/07/16 05:34:02;;;;;;;4.10;3.80;;;23.30;99.90;;;;;;4974162;28;20550;-81
2023/07/16 05:36:29;;;;;;;3.43;3.23;;;23.30;99.90;;;;;;4974167;28;20554;-80
2023/07/16 05:38:56;;;;;;;4.00;3.60;;;23.50;99.90;;;;;;4976935;28;20474;-77
2023/07/16 05:41:23;;;;;;;4.10;3.70;;;23.50;99.90;;;;;;4978321;28;20550;-76
2023/07/16 05:43:50;;;;;;;4.83;3.37;;;23.60;99.90;;;;;;4977575;28;21023;-76
2023/07/16 05:46:17;;;;;;;4.27;3.97;;;23.70;99.90;;;;;;4978236;28;20799;-76
2023/07/16 05:48:45;;;;;;;4.70;4.10;;;23.70;99.90;;;;;;4978297;28;20482;-80
2023/07/16 05:51:12;;;;;;;4.37;3.90;;;23.70;99.90;;;;;;4977426;28;20467;-76
2023/07/16 05:53:39;;;;;;;3.50;3.23;;;23.80;99.90;;;;;;4978204;28;20494;-76
2023/07/16 05:56:06;;;;;;;4.20;3.80;;;23.80;99.90;;;;;;4977724;28;20940;-76
2023/07/16 05:58:33;;;;;;;5.57;3.53;;;23.80;99.90;;;;;;4978532;28;20548;-76
2023/07/16 06:01:00;;;;;;;3.80;3.60;;;23.80;99.90;;;;;;4977434;28;20948;-79
2023/07/16 06:03:27;;;;;;;4.43;4.13;;;23.90;99.90;;;;;;4977776;28;20485;-80
2023/07/16 06:05:55;;;;;;;4.17;3.87;;;23.90;99.90;;;;;;4977233;28;21097;-79
2023/07/16 06:08:24;;;;;;;4.60;4.30;;;23.90;99.90;;;;;;4978049;28;20463;-79
2023/07/16 06:10:51;;;;;;;4.40;4.00;;;23.80;99.90;;;;;;4976522;28;20549;-79
2023/07/16 06:13:20;;;;;;;4.50;4.10;;;23.90;99.90;;;;;;4977290;28;20470;-79
2023/07/16 06:15:48;;;;;;;4.67;4.37;;;23.90;99.90;;;;;;4977856;28;20498;-76
2023/07/16 06:18:15;;;;;;;4.17;3.87;;;24.00;99.90;;;;;;4977838;28;20447;-76
2023/07/16 06:20:44;;;;;;;4.83;4.10;;;24.10;99.90;;;;;;4977985;28;20498;-80
2023/07/16 06:23:12;;;;;;;5.43;4.10;;;24.20;99.90;;;;;;4977481;28;20538;-80
2023/07/16 06:25:40;;;;;;;4.67;4.27;;;24.20;99.90;;;;;;4977647;28;20490;-76
2023/07/16 06:28:07;;;;;;;3.60;3.37;;;24.30;99.90;;;;;;4977500;28;20497;-80
2023/07/16 06:30:34;;;;;;;6.40;4.30;;;24.40;99.90;;;;;;4977293;28;20842;-79
2023/07/16 06:33:01;;;;;;;4.73;4.23;;;24.50;99.90;;;;;;4977454;28;20472;-79
2023/07/16 06:35:28;;;;;;;3.47;3.27;;;24.60;99.90;;;;;;4977098;28;20978;-76
2023/07/16 06:37:55;;;;;;;4.10;3.77;;;24.70;99.90;;;;;;4976822;28;20950;-76
2023/07/16 06:40:24;;;;;;;4.33;3.93;;;24.80;99.90;;;;;;4977423;28;20473;-80
2023/07/16 06:42:54;;;;;;;4.30;3.90;;;25.00;99.90;;;;;;4977182;28;20481;-76
2023/07/16 06:45:21;;;;;;;4.83;4.30;;;25.10;99.90;;;;;;4976734;28;20475;-76
2023/07/16 06:47:49;;;;;;;3.60;3.30;;;25.20;99.90;;;;;;4977171;28;20474;-80
2023/07/16 06:50:16;;;;;;;3.97;3.67;;;25.30;99.90;;;;;;4975874;28;20505;-76
2023/07/16 06:52:43;;;;;;;3.83;3.53;;;25.50;99.90;;;;;;4977446;28;20562;-80
2023/07/16 06:55:11;;;;;;;3.23;3.03;;;25.60;99.90;;;;;;4976009;28;20970;-76
2023/07/16 06:57:40;;;;;;;3.00;2.80;;;25.80;99.90;;;;;;4977307;28;20506;-80
2023/07/16 07:00:10;;;;;;;4.03;3.70;;;25.90;99.90;;;;;;4976822;28;20477;-80
2023/07/16 07:02:37;;;;;;;3.80;3.43;;;26.00;99.90;;;;;;4976903;28;20475;-76
2023/07/16 07:05:06;;;;;;;3.80;3.50;;;26.00;99.90;;;;;;4976362;28;20513;-80
2023/07/16 07:07:33;;;;;;;3.67;3.33;;;26.10;99.90;;;;;;4976671;28;20565;-80
2023/07/16 07:10:00;;;;;;;3.77;3.47;;;26.10;99.90;;;;;;4976561;28;20554;-76
2023/07/16 07:12:27;;;;;;;4.33;3.93;;;26.10;99.90;;;;;;4976705;28;20558;-75
2023/07/16 07:14:56;;;;;;;5.80;4.37;;;26.20;99.90;;;;;;4976855;28;20546;-75
2023/07/16 07:17:22;;;;;;;3.87;3.40;;;26.30;99.90;;;;;;4976139;28;20498;-75
2023/07/16 07:19:49;;;;;;;4.10;3.70;;;26.30;99.90;;;;;;4976187;28;20494;-76
2023/07/16 07:22:16;;;;;;;4.00;3.60;;;26.30;99.90;;;;;;4975774;28;20567;-79
2023/07/16 07:24:44;;;;;;;4.27;3.33;;;26.30;99.90;;;;;;4976459;28;20479;-80
2023/07/16 07:27:18;;;;;;;3.80;3.50;;;26.30;99.90;;;;;;4975715;28;20536;-80
2023/07/16 07:29:46;;;;;;;8.43;3.70;;;26.40;99.90;;;;;;4976923;28;20530;-80
2023/07/16 07:32:14;;;;;;;3.70;3.40;;;26.40;99.90;;;;;;4976258;28;20550;-78
2023/07/16 07:34:41;;;;;;;4.37;3.93;;;26.40;99.90;;;;;;4976442;28;20502;-79
2023/07/16 07:37:09;;;;;;;4.40;4.00;;;26.40;99.90;;;;;;4975501;28;20479;-79
2023/07/16 07:39:36;;;;;;;5.90;4.43;;;26.40;99.90;;;;;;4976312;28;20494;-79
2023/07/16 07:42:05;;;;;;;3.80;3.50;;;26.60;99.90;;;;;;4975717;28;20494;-76
2023/07/16 07:44:32;;;;;;;3.87;3.57;;;26.90;99.90;;;;;;4976311;28;20467;-75
2023/07/16 07:46:58;;;;;;;3.57;3.27;;;26.90;99.90;;;;;;4976247;28;20471;-80
2023/07/16 07:49:27;;;;;;;3.70;3.40;;;26.90;99.90;;;;;;4975578;28;20533;-79
2023/07/16 07:51:55;;;;;;;3.90;3.10;;;26.90;99.90;;;;;;4976014;28;20497;-75
2023/07/16 07:54:21;;;;;;;3.93;3.67;;;26.90;99.90;;;;;;4975175;28;20506;-81
2023/07/16 07:56:48;;;;;;;3.63;3.33;;;26.90;99.90;;;;;;4976011;28;20482;-80
2023/07/16 07:59:15;;;;;;;3.13;2.93;;;27.00;99.90;;;;;;4975457;28;20850;-80
2023/07/16 08:01:42;;;;;;;3.57;2.70;;;27.10;99.90;;;;;;4975503;28;20810;-80
2023/07/16 08:04:09;;;;;;;3.20;3.00;;;27.20;99.90;;;;;;4975344;28;20813;-81
2023/07/16 08:06:37;;;;;;;3.57;3.27;;;27.40;99.90;;;;;;4965357;28;20507;-76
2023/07/16 08:09:04;;;;;;;3.30;3.00;;;27.60;99.90;;;;;;4975361;28;20554;-76
2023/07/16 08:11:31;;;;;;;3.50;3.30;;;27.70;99.90;;;;;;4975764;28;20469;-76
2023/07/16 08:13:58;;;;;;;4.87;4.47;;;27.80;99.90;;;;;;4975141;28;20505;-82
2023/07/16 08:16:25;;;;;;;4.20;3.90;;;27.80;99.90;;;;;;4975022;28;20474;-77
2023/07/16 08:18:53;;;;;;;2.90;2.70;;;27.80;99.90;;;;;;4975580;28;20531;-80
2023/07/16 08:21:20;;;;;;;3.07;2.87;;;27.60;99.90;;;;;;4974234;28;20489;-80
2023/07/16 08:23:49;;;;;;;3.00;2.60;;;27.50;99.90;;;;;;4975335;28;20478;-76
2023/07/16 08:26:20;;;;;;;2.40;2.20;;;27.40;99.90;;;;;;4965585;28;20483;-78
2023/07/16 08:28:52;;;;;;;2.60;2.40;;;27.50;99.90;;;;;;4974419;28;20548;-81
2023/07/16 08:31:21;;;;;;;3.13;2.83;;;27.60;99.90;;;;;;4974633;28;20551;-80
2023/07/16 08:33:51;;;;;;;4.30;2.57;;;27.70;99.90;;;;;;4975529;28;21053;-81
2023/07/16 08:36:19;;;;;;;2.63;2.43;;;27.90;99.90;;;;;;4974930;28;20552;-77
2023/07/16 08:38:46;;;;;;;3.43;3.13;;;28.00;99.90;;;;;;4974954;28;20462;-82
2023/07/16 08:41:17;;;;;;;3.20;2.37;;;28.10;99.90;;;;;;4974338;28;20517;-81
2023/07/16 08:43:47;;;;;;;5.13;2.37;;;28.20;99.90;;;;;;4974315;28;20470;-80
2023/07/16 08:46:15;;;;;;;3.37;3.07;;;28.40;99.90;;;;;;4974336;28;20865;-80
2023/07/16 08:48:42;;;;;;;3.03;2.73;;;28.40;99.90;;;;;;4974820;28;20486;-81
2023/07/16 08:51:12;;;;;;;2.90;2.60;;;28.50;99.90;;;;;;4975068;28;20537;-80
2023/07/16 08:53:40;;;;;;;2.73;2.53;;;28.60;99.90;;;;;;4973854;28;20479;-77
2023/07/16 08:56:10;;;;;;;4.20;3.13;;;28.70;99.90;;;;;;4976263;28;20474;-80
2023/07/16 08:58:44;;;;;;;3.90;2.40;;;28.70;99.80;;;;;;4973995;28;20825;-76
2023/07/16 09:01:27;;;;;;;3.33;3.03;;;28.80;99.80;;;;;;4964692;28;20486;-76
2023/07/16 09:03:58;;;;;;;2.93;2.67;;;28.80;99.70;;;;;;4974146;28;20467;-76
2023/07/16 09:06:31;;;;;;;2.73;2.07;;;28.90;99.20;;;;;;4965041;28;20797;-76
2023/07/16 09:08:59;;;;;;;4.30;2.60;;;29.00;98.30;;;;;;4975182;28;20475;-81
2023/07/16 09:11:27;;;;;;;2.50;2.30;;;28.90;97.50;;;;;;4973156;28;20470;-80
2023/07/16 09:13:55;;;;;;;3.73;2.90;;;28.90;97.40;;;;;;4974534;28;20471;-77
2023/07/16 09:16:27;;;;;;;4.20;2.93;;;28.90;97.30;;;;;;4973615;28;20989;-79
2023/07/16 09:18:56;;;;;;;2.57;2.37;;;28.90;97.30;;;;;;4974275;28;20475;-76
2023/07/16 09:21:23;;;;;;;4.50;3.40;;;28.90;97.20;;;;;;4963368;28;20478;-80
2023/07/16 09:23:54;;;;;;;4.40;2.93;;;28.90;97.30;;;;;;4973677;28;20617;-76
2023/07/16 09:26:20;;;;;;;5.07;2.67;;;28.90;97.00;;;;;;4974131;28;20601;-76
2023/07/16 09:28:51;;;;;;;2.97;2.57;;;29.00;96.90;;;;;;4974497;28;20471;-78
2023/07/16 09:31:21;;;;;;;6.73;3.43;;;28.90;95.90;;;;;;4973832;28;20590;-76
2023/07/16 09:33:48;;;;;;;4.83;2.67;;;28.90;95.30;;;;;;4974056;28;20486;-80
2023/07/16 09:36:27;;;;;;;4.30;2.70;;;28.80;93.90;;;;;;4973563;28;20565;-79
2023/07/16 09:38:56;;;;;;;3.10;2.60;;;28.70;93.80;;;;;;4973485;28;20502;-75
2023/07/16 09:41:23;;;;;;;3.50;2.33;;;28.60;93.70;;;;;;4973027;28;20483;-77
2023/07/16 09:43:50;;;;;;;4.13;2.70;;;28.60;93.30;;;;;;4971675;28;20525;-77
2023/07/16 09:46:24;;;;;;;3.10;2.70;;;28.60;93.50;;;;;;4973885;28;20554;-80
2023/07/16 09:48:51;;;;;;;5.53;3.50;;;28.60;93.80;;;;;;4973975;28;20542;-79
2023/07/16 09:51:21;;;;;;;3.10;2.37;;;28.60;93.60;;;;;;4973825;28;20466;-77
2023/07/16 09:53:49;;;;;;;3.20;2.33;;;28.60;93.50;;;;;;4973998;28;20467;-81
2023/07/16 09:56:18;;;;;;;3.00;2.10;;;28.60;93.80;;;;;;4973580;28;20528;-80
2023/07/16 09:58:45;;;;;;;2.47;2.27;;;28.70;93.60;;;;;;4973506;28;20498;-81
2023/07/16 10:01:15;;;;;;;2.80;2.43;;;28.70;93.60;;;;;;4965741;28;20501;-77
2023/07/16 10:03:51;;;;;;;3.07;2.87;;;28.70;94.00;;;;;;4973388;28;20495;-80
2023/07/16 10:06:18;;;;;;;5.47;3.70;;;28.80;94.30;;;;;;4973947;28;20471;-79
2023/07/16 10:08:50;;;;;;;4.37;3.27;;;28.80;94.40;;;;;;4974407;28;20533;-80
2023/07/16 10:11:18;;;;;;;4.27;3.90;;;28.80;93.60;;;;;;4973925;28;20882;-80
2023/07/16 10:13:53;;;;;;;3.83;3.53;;;28.80;93.70;;;;;;4970048;28;20558;-75
2023/07/16 10:16:24;;;;;;;2.50;2.30;;;28.90;93.30;;;;;;4971928;28;20474;-77
2023/07/16 10:18:55;;;;;;;3.90;2.43;;;28.80;92.80;;;;;;4974630;28;20849;-80
2023/07/16 10:21:25;;;;;;;3.07;2.63;;;28.80;92.90;;;;;;4973020;28;20494;-75
2023/07/16 10:23:59;;;;;;;3.93;3.00;;;28.80;93.10;;;;;;4975229;28;20480;-75
2023/07/16 10:26:29;;;;;;;2.60;2.40;;;28.70;93.60;;;;;;4977162;28;20475;-77
2023/07/16 10:28:56;;;;;;;3.57;3.23;;;28.70;93.10;;;;;;4977815;28;20475;-80
2023/07/16 10:31:24;;;;;;;3.03;2.83;;;28.70;93.00;;;;;;4977271;28;20485;-76
2023/07/16 10:34:05;;;;;;;2.83;2.50;;;28.70;92.90;;;;;;4977575;28;21043;-81
2023/07/16 10:36:38;;;;;;;5.40;3.43;;;28.60;93.00;;;;;;4977219;28;20477;-76
2023/07/16 10:39:06;;;;;;;3.30;3.03;;;28.60;92.70;;;;;;4977361;28;20485;-76
2023/07/16 10:41:33;;;;;;;3.10;2.80;;;28.60;92.60;;;;;;4976901;28;20968;-80
2023/07/16 10:44:05;;;;;;;2.70;2.50;;;28.60;92.60;;;;;;4977245;28;20471;-79
2023/07/16 10:46:33;;;;;;;2.47;2.27;;;28.60;92.60;;;;;;4976770;28;20471;-80
2023/07/16 10:49:00;;;;;;;2.43;2.23;;;28.60;92.80;;;;;;4977189;28;20490;-76
2023/07/16 10:51:28;;;;;;;4.87;2.20;;;28.60;93.10;;;;;;4976628;28;20968;-80
2023/07/16 10:53:56;;;;;;;5.47;2.60;;;28.50;93.30;;;;;;4976904;28;20558;-79
2023/07/16 10:56:24;;;;;;;2.10;2.00;;;28.50;93.00;;;;;;4975599;28;21047;-80
2023/07/16 10:58:51;;;;;;;2.60;2.20;;;28.50;92.80;;;;;;4977026;28;20490;-75
2023/07/16 11:01:19;;;;;;;3.10;2.63;;;28.50;92.90;;;;;;4977087;28;20498;-79
2023/07/16 11:03:46;;;;;;;2.93;2.60;;;28.50;92.90;;;;;;4976190;28;20980;-80
2023/07/16 11:06:15;;;;;;;5.17;2.97;;;28.60;93.00;;;;;;4976854;28;20569;-76
2023/07/16 11:08:44;;;;;;;2.73;2.53;;;28.60;93.10;;;;;;4976306;28;20623;-76
2023/07/16 11:11:14;;;;;;;3.27;3.07;;;28.80;93.10;;;;;;4976729;28;20475;-76
2023/07/16 11:13:42;;;;;;;2.30;2.10;;;28.80;93.10;;;;;;4976180;28;20467;-79
2023/07/16 11:16:09;;;;;;;3.33;3.03;;;28.90;92.70;;;;;;4976498;28;20467;-76
2023/07/16 11:18:36;;;;;;;2.97;2.77;;;28.90;92.30;;;;;;4975696;28;20540;-76
2023/07/16 11:21:04;;;;;;;3.37;3.10;;;29.00;91.80;;;;;;4975753;28;20557;-76
2023/07/16 11:23:35;;;;;;;3.40;3.10;;;29.00;91.40;;;;;;4975699;28;20560;-79
2023/07/16 11:26:04;;;;;;;2.90;2.70;;;29.00;90.90;;;;;;4976544;28;20561;-76
2023/07/16 11:28:37;;;;;;;3.23;2.60;;;29.10;91.10;;;;;;4975458;28;20534;-79
2023/07/16 11:31:12;;;;;;;2.40;2.20;;;29.00;90.90;;;;;;4976539;28;20510;-76
2023/07/16 11:33:39;;;;;;;2.50;2.20;;;29.10;90.80;;;;;;4975756;28;20462;-75
2023/07/16 11:36:06;;;;;;;2.70;2.50;;;29.10;90.70;;;;;;4975318;28;20521;-79
2023/07/16 11:38:38;;;;;;;3.17;2.87;;;29.10;90.80;;;;;;4975449;28;20482;-79
2023/07/16 11:41:06;;;;;;;2.63;2.43;;;29.10;91.40;;;;;;4975817;28;20495;-76
2023/07/16 11:43:36;;;;;;;2.57;2.40;;;29.10;91.70;;;;;;4975845;28;20475;-79
2023/07/16 11:46:16;;;;;;;3.73;2.60;;;29.00;91.90;;;;;;4976095;28;20466;-78
2023/07/16 11:48:43;;;;;;;6.20;2.57;;;29.00;91.90;;;;;;4975527;28;20968;-75
2023/07/16 11:51:10;;;;;;;2.90;2.67;;;29.00;92.60;;;;;;4975491;28;20554;-79
2023/07/16 11:53:37;;;;;;;2.40;2.20;;;29.00;92.20;;;;;;4975349;28;20968;-80
2023/07/16 11:56:06;;;;;;;4.17;2.90;;;29.00;92.10;;;;;;4975850;28;20873;-76
2023/07/16 11:58:33;;;;;;;4.63;2.20;;;29.00;91.80;;;;;;4975222;28;20502;-81
2023/07/16 12:01:00;;;;;;;4.00;2.23;;;29.00;90.80;;;;;;4975849;28;20549;-80
2023/07/16 12:03:27;;;;;;;2.40;2.20;;;29.00;90.10;;;;;;4975697;28;20529;-77
2023/07/16 12:05:54;;;;;;;3.50;2.30;;;29.00;90.00;;;;;;4965339;28;20470;-77
2023/07/16 12:08:21;;;;;;;3.03;2.73;;;29.10;90.00;;;;;;4975782;28;20502;-76
2023/07/16 12:10:47;;;;;;;2.80;2.00;;;29.10;89.50;;;;;;4975040;28;20471;-75
2023/07/16 12:13:16;;;;;;;3.93;2.20;;;29.20;88.20;;;;;;4975324;28;21028;-75
2023/07/16 12:15:43;;;;;;;2.47;2.27;;;29.10;83.60;;;;;;4975108;28;20479;-79
2023/07/16 12:18:11;;;;;;;2.33;2.00;;;29.10;83.20;;;;;;4975853;28;20559;-75
2023/07/16 12:20:38;;;;;;;1.90;1.80;;;29.20;82.00;;;;;;4975055;28;20481;-78
2023/07/16 12:23:13;;;;;;;2.20;2.10;;;29.20;80.80;;;;;;4975276;28;20552;-79
2023/07/16 12:25:39;;;;;;;2.23;1.80;;;29.20;80.60;;;;;;4974755;28;20538;-79
2023/07/16 12:28:06;;;;;;;2.50;2.30;;;29.30;81.00;;;;;;4975470;28;20467;-75
2023/07/16 12:30:35;;;;;;;2.60;2.10;;;29.30;79.50;;;;;;4975396;28;20467;-81
2023/07/16 12:33:05;;;;;;;2.80;2.60;;;29.20;79.00;;;;;;4975366;28;20467;-80
2023/07/16 12:35:32;;;;;;;2.40;2.20;;;29.30;78.30;;;;;;4975267;28;20471;-81
2023/07/16 12:37:59;;;;;;;5.53;2.57;;;29.30;77.70;;;;;;4974762;28;20486;-76
2023/07/16 12:40:26;;;;;;;3.07;2.50;;;29.30;76.60;;;;;;4975109;28;20526;-77
2023/07/16 12:42:53;;;;;;;2.30;2.10;;;29.30;75.40;;;;;;4974407;28;20471;-80
2023/07/16 12:45:20;;;;;;;3.00;2.57;;;29.30;73.50;;;;;;4974997;28;20471;-76
2023/07/16 12:47:48;;;;;;;2.50;2.03;;;29.30;71.70;;;;;;4974757;28;20529;-80
2023/07/16 12:50:17;;;;;;;2.73;2.53;;;29.30;71.00;;;;;;4975715;28;20553;-75
2023/07/16 12:52:44;;;;;;;2.97;2.73;;;29.30;71.00;;;;;;4974756;28;21025;-79